sensor_id;sensor_type;location;lat;lon;timestamp;pressure;altitude;pressure_sealevel;temperature;humidity
50684;BME280;36654;45.042;38.994;2023-02-28T00:01:19;101780.53;;;14.18;34.36
50684;BME280;36654;45.042;38.994;2023-02-28T00:03:45;101779.66;;;14.20;34.21
50684;BME280;36654;45.042;38.994;2023-02-28T00:06:10;101778.84;;;14.26;34.41
50684;BME280;36654;45.042;38.994;2023-02-28T00:08:37;101790.38;;;14.25;34.30
50684;BME280;36654;45.042;38.994;2023-02-28T00:11:03;101782.38;;;14.25;34.49
50684;BME280;36654;45.042;38.994;2023-02-28T00:13:29;101790.41;;;14.27;34.56
50684;BME280;36654;45.042;38.994;2023-02-28T00:16:04;101755.56;;;14.13;34.49
50684;BME280;36654;45.042;38.994;2023-02-28T00:18:30;101757.41;;;14.20;34.51
50684;BME280;36654;45.042;38.994;2023-02-28T00:20:56;101783.31;;;14.29;34.71
50684;BME280;36654;45.042;38.994;2023-02-28T00:23:22;101785.09;;;14.30;34.61
50684;BME280;36654;45.042;38.994;2023-02-28T00:25:48;101752.06;;;14.20;34.50
50684;BME280;36654;45.042;38.994;2023-02-28T00:28:13;101752.00;;;14.14;34.55
50684;BME280;36654;45.042;38.994;2023-02-28T00:30:39;101785.09;;;14.30;34.52
50684;BME280;36654;45.042;38.994;2023-02-28T00:33:04;101757.41;;;14.18;34.50
50684;BME280;36654;45.042;38.994;2023-02-28T00:35:30;101760.97;;;14.19;34.81
50684;BME280;36654;45.042;38.994;2023-02-28T00:37:56;101767.25;;;14.24;34.51
50684;BME280;36654;45.042;38.994;2023-02-28T00:40:21;101764.53;;;14.18;34.68
50684;BME280;36654;45.042;38.994;2023-02-28T00:42:47;101768.16;;;14.26;34.84
50684;BME280;36654;45.042;38.994;2023-02-28T00:45:12;101763.69;;;14.23;34.83
50684;BME280;36654;45.042;38.994;2023-02-28T00:47:38;101785.09;;;14.28;34.76
50684;BME280;36654;45.042;38.994;2023-02-28T00:50:04;101782.41;;;14.27;34.77
50684;BME280;36654;45.042;38.994;2023-02-28T00:52:30;101769.84;;;14.18;35.02
50684;BME280;36654;45.042;38.994;2023-02-28T00:54:55;101785.97;;;14.29;34.89
50684;BME280;36654;45.042;38.994;2023-02-28T00:57:21;101764.53;;;14.18;34.84
50684;BME280;36654;45.042;38.994;2023-02-28T00:59:47;101787.69;;;14.25;35.05
50684;BME280;36654;45.042;38.994;2023-02-28T01:02:12;101783.28;;;14.26;35.17
50684;BME280;36654;45.042;38.994;2023-02-28T01:04:38;101787.66;;;14.22;34.96
50684;BME280;36654;45.042;38.994;2023-02-28T01:07:04;101770.84;;;14.28;34.93
50684;BME280;36654;45.042;38.994;2023-02-28T01:09:29;101721.53;;;13.93;35.16
50684;BME280;36654;45.042;38.994;2023-02-28T01:11:55;101784.19;;;14.26;34.96
50684;BME280;36654;45.042;38.994;2023-02-28T01:14:21;101785.06;;;14.27;34.80
50684;BME280;36654;45.042;38.994;2023-02-28T01:16:46;101784.16;;;14.23;34.95
50684;BME280;36654;45.042;38.994;2023-02-28T01:19:12;101785.88;;;14.22;35.01
50684;BME280;36654;45.042;38.994;2023-02-28T01:21:38;101718.75;;;13.84;35.08
50684;BME280;36654;45.042;38.994;2023-02-28T01:24:04;101789.38;;;14.17;35.04
50684;BME280;36654;45.042;38.994;2023-02-28T01:26:30;101780.44;;;14.12;35.19
50684;BME280;36654;45.042;38.994;2023-02-28T01:28:56;101794.72;;;14.15;35.04
50684;BME280;36654;45.042;38.994;2023-02-28T01:31:22;101789.34;;;14.14;34.91
50684;BME280;36654;45.042;38.994;2023-02-28T01:33:48;101793.78;;;14.15;34.69
50684;BME280;36654;45.042;38.994;2023-02-28T01:36:17;101780.34;;;14.06;34.59
50684;BME280;36654;45.042;38.994;2023-02-28T01:38:43;101780.34;;;14.06;34.29
50684;BME280;36654;45.042;38.994;2023-02-28T01:41:15;101795.56;;;14.14;34.64
50684;BME280;36654;45.042;38.994;2023-02-28T01:46:10;101801.75;;;14.12;34.68
50684;BME280;36654;45.042;38.994;2023-02-28T01:51:22;101799.91;;;14.08;34.73
50684;BME280;36654;45.042;38.994;2023-02-28T01:53:57;101808.81;;;14.07;34.74
50684;BME280;36654;45.042;38.994;2023-02-28T01:56:28;101805.22;;;14.05;34.62
50684;BME280;36654;45.042;38.994;2023-02-28T01:58:56;101805.19;;;14.01;34.75
50684;BME280;36654;45.042;38.994;2023-02-28T02:01:23;101807.84;;;14.01;34.63
50684;BME280;36654;45.042;38.994;2023-02-28T02:03:58;101794.47;;;13.98;34.65
50684;BME280;36654;45.042;38.994;2023-02-28T02:06:37;101796.25;;;13.99;34.67
50684;BME280;36654;45.042;38.994;2023-02-28T02:09:03;101805.13;;;14.00;34.58
50684;BME280;36654;45.042;38.994;2023-02-28T02:11:29;101806.84;;;13.93;34.62
50684;BME280;36654;45.042;38.994;2023-02-28T02:14:33;101798.00;;;13.97;34.53
50684;BME280;36654;45.042;38.994;2023-02-28T02:17:18;101788.06;;;13.87;34.39
50684;BME280;36654;45.042;38.994;2023-02-28T02:25:54;101806.88;;;13.96;34.67
50684;BME280;36654;45.042;38.994;2023-02-28T02:36:42;101805.03;;;13.92;34.44
50684;BME280;36654;45.042;38.994;2023-02-28T02:41:59;101792.44;;;13.82;34.41
50684;BME280;36654;45.042;38.994;2023-02-28T02:45:07;101805.88;;;13.90;34.28
50684;BME280;36654;45.042;38.994;2023-02-28T02:47:31;101739.72;;;13.58;34.35
50684;BME280;36654;45.042;38.994;2023-02-28T02:50:02;101762.88;;;13.64;34.42
50684;BME280;36654;45.042;38.994;2023-02-28T02:52:38;101784.41;;;13.79;34.07
50684;BME280;36654;45.042;38.994;2023-02-28T02:55:07;101811.25;;;13.91;33.91
50684;BME280;36654;45.042;38.994;2023-02-28T02:57:46;101803.25;;;13.91;34.29
50684;BME280;36654;45.042;38.994;2023-02-28T03:00:16;101768.31;;;13.71;34.23
50684;BME280;36654;45.042;38.994;2023-02-28T03:02:44;101788.94;;;13.85;34.04
50684;BME280;36654;45.042;38.994;2023-02-28T03:05:39;101802.38;;;13.91;34.24
50684;BME280;36654;45.042;38.994;2023-02-28T03:08:07;101805.03;;;13.91;33.98
50684;BME280;36654;45.042;38.994;2023-02-28T03:10:41;101800.63;;;13.93;33.94
50684;BME280;36654;45.042;38.994;2023-02-28T03:15:58;101781.91;;;13.88;33.49
50684;BME280;36654;45.042;38.994;2023-02-28T03:23:59;101790.91;;;13.99;33.20
50684;BME280;36654;45.042;38.994;2023-02-28T03:26:29;101774.78;;;13.90;32.89
50684;BME280;36654;45.042;38.994;2023-02-28T03:29:45;101779.34;;;13.96;32.75
50684;BME280;36654;45.042;38.994;2023-02-28T03:31:58;101786.50;;;14.01;32.77
50684;BME280;36654;45.042;38.994;2023-02-28T03:34:29;101787.44;;;14.03;32.94
50684;BME280;36654;45.042;38.994;2023-02-28T03:37:19;101766.00;;;13.97;32.43
50684;BME280;36654;45.042;38.994;2023-02-28T03:39:51;101783.03;;;14.07;32.63
50684;BME280;36654;45.042;38.994;2023-02-28T03:42:23;101780.34;;;14.07;32.45
50684;BME280;36654;45.042;38.994;2023-02-28T03:44:56;101758.78;;;13.90;32.67
50684;BME280;36654;45.042;38.994;2023-02-28T03:50:02;101787.47;;;14.07;32.45
50684;BME280;36654;45.042;38.994;2023-02-28T03:52:34;101784.75;;;14.03;32.69
50684;BME280;36654;45.042;38.994;2023-02-28T03:55:05;101783.84;;;14.01;33.03
50684;BME280;36654;45.042;38.994;2023-02-28T04:00:34;101790.03;;;13.99;32.94
50684;BME280;36654;45.042;38.994;2023-02-28T04:03:03;101779.31;;;13.94;32.92
50684;BME280;36654;45.042;38.994;2023-02-28T04:05:29;101777.59;;;13.99;33.00
50684;BME280;36654;45.042;38.994;2023-02-28T04:08:07;101783.84;;;14.01;33.02
50684;BME280;36654;45.042;38.994;2023-02-28T04:10:33;101778.38;;;13.92;33.19
50684;BME280;36654;45.042;38.994;2023-02-28T04:12:58;101773.09;;;13.94;33.40
50684;BME280;36654;45.042;38.994;2023-02-28T04:15:24;101789.19;;;14.01;33.01
50684;BME280;36654;45.042;38.994;2023-02-28T04:17:50;101798.09;;;14.03;33.15
50684;BME280;36654;45.042;38.994;2023-02-28T04:20:15;101754.31;;;13.88;32.93
50684;BME280;36654;45.042;38.994;2023-02-28T04:22:41;101783.88;;;14.05;32.93
50684;BME280;36654;45.042;38.994;2023-02-28T04:25:07;101798.28;;;14.16;32.88
50684;BME280;36654;45.042;38.994;2023-02-28T04:27:33;101808.97;;;14.19;32.85
50684;BME280;36654;45.042;38.994;2023-02-28T04:29:59;101802.81;;;14.23;32.64
50684;BME280;36654;45.042;38.994;2023-02-28T04:32:25;101764.25;;;13.99;32.67
50684;BME280;36654;45.042;38.994;2023-02-28T04:34:51;101805.50;;;14.26;32.75
50684;BME280;36654;45.042;38.994;2023-02-28T04:37:16;101796.63;;;14.27;32.42
50684;BME280;36654;45.042;38.994;2023-02-28T04:39:42;101810.00;;;14.30;32.60
50684;BME280;36654;45.042;38.994;2023-02-28T04:42:08;101812.66;;;14.30;32.84
50684;BME280;36654;45.042;38.994;2023-02-28T04:44:34;101807.28;;;14.27;32.94
50684;BME280;36654;45.042;38.994;2023-02-28T04:47:00;101815.31;;;14.30;32.92
50684;BME280;36654;45.042;38.994;2023-02-28T04:49:25;101818.00;;;14.30;33.20
50684;BME280;36654;45.042;38.994;2023-02-28T04:51:51;101812.75;;;14.36;33.23
50684;BME280;36654;45.042;38.994;2023-02-28T04:54:18;101807.28;;;14.27;33.24
50684;BME280;36654;45.042;38.994;2023-02-28T04:56:43;101814.47;;;14.31;33.26
50684;BME280;36654;45.042;38.994;2023-02-28T04:59:09;101824.25;;;14.32;33.57
50684;BME280;36654;45.042;38.994;2023-02-28T05:01:35;101818.09;;;14.36;33.65
50684;BME280;36654;45.042;38.994;2023-02-28T05:04:03;101784.88;;;14.11;33.67
50684;BME280;36654;45.042;38.994;2023-02-28T05:06:31;101836.88;;;14.45;33.36
50684;BME280;36654;45.042;38.994;2023-02-28T05:08:57;101835.97;;;14.43;33.61
50684;BME280;36654;45.042;38.994;2023-02-28T05:11:31;101846.72;;;14.51;33.61
50684;BME280;36654;45.042;38.994;2023-02-28T05:14:06;101855.69;;;14.55;33.68
50684;BME280;36654;45.042;38.994;2023-02-28T05:16:32;101839.63;;;14.52;33.94
50684;BME280;36654;45.042;38.994;2023-02-28T05:18:58;101850.44;;;14.61;33.50
50684;BME280;36654;45.042;38.994;2023-02-28T05:21:30;101853.22;;;14.69;33.51
50684;BME280;36654;45.042;38.994;2023-02-28T05:23:58;101846.13;;;14.71;33.42
50684;BME280;36654;45.042;38.994;2023-02-28T05:26:24;101852.38;;;14.74;33.59
50684;BME280;36654;45.042;38.994;2023-02-28T05:28:50;101838.16;;;14.75;33.48
50684;BME280;36654;45.042;38.994;2023-02-28T05:31:15;101860.47;;;14.80;33.72
50684;BME280;36654;45.042;38.994;2023-02-28T05:33:41;101852.47;;;14.80;33.64
50684;BME280;36654;45.042;38.994;2023-02-28T05:36:07;101845.44;;;14.88;33.70
50684;BME280;36654;45.042;38.994;2023-02-28T05:38:33;101851.69;;;14.91;33.49
50684;BME280;36654;45.042;38.994;2023-02-28T05:40:58;101857.06;;;14.94;33.57
50684;BME280;36654;45.042;38.994;2023-02-28T05:43:24;101823.97;;;14.79;33.58
50684;BME280;36654;45.042;38.994;2023-02-28T05:45:50;101867.03;;;15.12;33.49
50684;BME280;36654;45.042;38.994;2023-02-28T05:48:16;101860.88;;;15.19;33.33
50684;BME280;36654;45.042;38.994;2023-02-28T05:50:42;101868.94;;;15.23;33.28
50684;BME280;36654;45.042;38.994;2023-02-28T05:53:10;101849.34;;;15.24;33.27
50684;BME280;36654;45.042;38.994;2023-02-28T05:55:35;101845.75;;;15.22;33.08
50684;BME280;36654;45.042;38.994;2023-02-28T05:58:02;101842.28;;;15.29;33.11
50684;BME280;36654;45.042;38.994;2023-02-28T06:00:28;101847.66;;;15.32;33.12
50684;BME280;36654;45.042;38.994;2023-02-28T06:02:53;101811.88;;;15.15;33.06
50684;BME280;36654;45.042;38.994;2023-02-28T06:05:22;101830.78;;;15.38;33.01
50684;BME280;36654;45.042;38.994;2023-02-28T06:07:47;101837.03;;;15.42;33.02
50684;BME280;36654;45.042;38.994;2023-02-28T06:10:13;101865.59;;;15.49;32.68
50684;BME280;36654;45.042;38.994;2023-02-28T06:12:39;101867.38;;;15.50;32.73
50684;BME280;36654;45.042;38.994;2023-02-28T06:15:09;101873.75;;;15.64;33.09
50684;BME280;36654;45.042;38.994;2023-02-28T06:17:36;101894.22;;;15.62;32.96
50684;BME280;36654;45.042;38.994;2023-02-28T06:20:03;101872.81;;;15.56;33.13
50684;BME280;36654;45.042;38.994;2023-02-28T06:22:28;101873.75;;;15.64;33.15
50684;BME280;36654;45.042;38.994;2023-02-28T06:24:54;101880.00;;;15.65;34.01
50684;BME280;36654;45.042;38.994;2023-02-28T06:27:22;101875.47;;;15.56;34.86
50684;BME280;36654;45.042;38.994;2023-02-28T06:29:47;101886.19;;;15.59;34.95
50684;BME280;36654;45.042;38.994;2023-02-28T06:32:13;101880.88;;;15.61;35.64
50684;BME280;36654;45.042;38.994;2023-02-28T06:34:38;101874.47;;;15.43;36.05
50684;BME280;36654;45.042;38.994;2023-02-28T06:37:04;101888.75;;;15.47;36.59
50684;BME280;36654;45.042;38.994;2023-02-28T06:39:30;101881.53;;;15.37;36.98
50684;BME280;36654;45.042;38.994;2023-02-28T06:41:57;101852.88;;;15.20;37.37
50684;BME280;36654;45.042;38.994;2023-02-28T06:44:23;101888.69;;;15.38;37.59
50684;BME280;36654;45.042;38.994;2023-02-28T06:46:49;101892.22;;;15.37;37.75
50684;BME280;36654;45.042;38.994;2023-02-28T06:49:15;101859.13;;;15.21;37.99
50684;BME280;36654;45.042;38.994;2023-02-28T06:51:42;101884.09;;;15.26;38.47
50684;BME280;36654;45.042;38.994;2023-02-28T06:54:11;101892.97;;;15.20;38.77
50684;BME280;36654;45.042;38.994;2023-02-28T06:56:37;101885.78;;;15.16;39.28
50684;BME280;36654;45.042;38.994;2023-02-28T06:59:03;101887.56;;;15.16;39.39
50684;BME280;36654;45.042;38.994;2023-02-28T07:01:29;101892.75;;;15.03;40.08
50684;BME280;36654;45.042;38.994;2023-02-28T07:03:57;101882.00;;;14.96;40.13
50684;BME280;36654;45.042;38.994;2023-02-28T07:06:22;101887.31;;;14.93;39.98
50684;BME280;36654;45.042;38.994;2023-02-28T07:08:50;101864.81;;;14.72;40.11
50684;BME280;36654;45.042;38.994;2023-02-28T07:11:16;101899.81;;;14.95;40.44
50684;BME280;36654;45.042;38.994;2023-02-28T07:13:41;101889.94;;;14.88;40.62
50684;BME280;36654;45.042;38.994;2023-02-28T07:16:09;101896.13;;;14.87;40.67
50684;BME280;36654;45.042;38.994;2023-02-28T07:18:36;101871.97;;;14.76;40.67
50684;BME280;36654;45.042;38.994;2023-02-28T07:21:07;101877.22;;;14.70;40.57
50684;BME280;36654;45.042;38.994;2023-02-28T07:23:34;101883.53;;;14.77;40.84
50684;BME280;36654;45.042;38.994;2023-02-28T07:26:00;101885.34;;;14.79;40.92
50684;BME280;36654;45.042;38.994;2023-02-28T07:28:26;101891.63;;;14.81;41.01
50684;BME280;36654;45.042;38.994;2023-02-28T07:30:52;101895.22;;;14.86;41.27
50684;BME280;36654;45.042;38.994;2023-02-28T07:33:18;101899.75;;;14.91;41.16
50684;BME280;36654;45.042;38.994;2023-02-28T07:35:43;101866.81;;;14.92;41.27
50684;BME280;36654;45.042;38.994;2023-02-28T07:38:09;101877.69;;;15.08;41.28
50684;BME280;36654;45.042;38.994;2023-02-28T07:40:35;101889.28;;;15.12;41.06
50684;BME280;36654;45.042;38.994;2023-02-28T07:43:02;101884.88;;;15.14;40.95
50684;BME280;36654;45.042;38.994;2023-02-28T07:45:29;101875.88;;;15.07;41.12
50684;BME280;36654;45.042;38.994;2023-02-28T07:47:55;101871.59;;;15.22;40.94
50684;BME280;36654;45.042;38.994;2023-02-28T07:50:21;101878.75;;;15.23;41.18
50684;BME280;36654;45.042;38.994;2023-02-28T07:52:47;101840.19;;;14.98;41.90
50684;BME280;36654;45.042;38.994;2023-02-28T07:55:12;101869.69;;;15.12;41.56
50684;BME280;36654;45.042;38.994;2023-02-28T07:57:40;101883.97;;;15.14;41.87
50684;BME280;36654;45.042;38.994;2023-02-28T08:00:08;101901.03;;;15.26;41.99
50684;BME280;36654;45.042;38.994;2023-02-28T08:02:38;101897.56;;;15.35;42.40
50684;BME280;36654;45.042;38.994;2023-02-28T08:05:04;101881.50;;;15.34;42.22
50684;BME280;36654;45.042;38.994;2023-02-28T08:07:30;101889.56;;;15.40;42.76
50684;BME280;36654;45.042;38.994;2023-02-28T08:09:55;101894.88;;;15.37;43.31
50684;BME280;36654;45.042;38.994;2023-02-28T08:12:21;101893.09;;;15.34;43.67
50684;BME280;36654;45.042;38.994;2023-02-28T08:14:47;101882.41;;;15.36;43.60
50684;BME280;36654;45.042;38.994;2023-02-28T08:17:12;101889.53;;;15.35;43.99
50684;BME280;36654;45.042;38.994;2023-02-28T08:19:38;101854.56;;;15.12;44.11
50684;BME280;36654;45.042;38.994;2023-02-28T08:22:04;101896.75;;;15.44;44.07
50684;BME280;36654;45.042;38.994;2023-02-28T08:24:30;101919.13;;;15.55;44.59
50684;BME280;36654;45.042;38.994;2023-02-28T08:26:55;101867.31;;;15.38;44.60
50684;BME280;36654;45.042;38.994;2023-02-28T08:29:21;101896.91;;;15.61;44.80
50684;BME280;36654;45.042;38.994;2023-02-28T08:31:47;101912.88;;;15.56;45.31
50684;BME280;36654;45.042;38.994;2023-02-28T08:34:14;101894.06;;;15.44;45.30
50684;BME280;36654;45.042;38.994;2023-02-28T08:36:41;101913.72;;;15.49;45.50
50684;BME280;36654;45.042;38.994;2023-02-28T08:39:08;101907.38;;;15.39;45.68
50684;BME280;36654;45.042;38.994;2023-02-28T08:41:34;101876.84;;;15.13;45.52
50684;BME280;36654;45.042;38.994;2023-02-28T08:43:59;101928.78;;;15.42;46.07
50684;BME280;36654;45.042;38.994;2023-02-28T08:46:25;101903.88;;;15.43;46.75
50684;BME280;36654;45.042;38.994;2023-02-28T08:48:52;101918.16;;;15.50;46.93
50684;BME280;36654;45.042;38.994;2023-02-28T08:51:19;101908.31;;;15.44;47.89
50684;BME280;36654;45.042;38.994;2023-02-28T08:53:58;101851.88;;;15.09;48.32
50684;BME280;36654;45.042;38.994;2023-02-28T08:56:26;101903.59;;;15.16;48.40
50684;BME280;36654;45.042;38.994;2023-02-28T08:58:52;101861.56;;;14.98;48.23
50684;BME280;36654;45.042;38.994;2023-02-28T09:01:27;101872.31;;;15.07;48.46
50684;BME280;36654;45.042;38.994;2023-02-28T09:03:54;101900.13;;;15.26;49.01
50684;BME280;36654;45.042;38.994;2023-02-28T09:06:22;101875.84;;;15.03;48.68
50684;BME280;36654;45.042;38.994;2023-02-28T09:08:48;101855.13;;;14.82;48.95
50684;BME280;36654;45.042;38.994;2023-02-28T09:11:15;101894.50;;;14.98;49.38
50684;BME280;36654;45.042;38.994;2023-02-28T09:13:41;101902.47;;;14.97;49.45
50684;BME280;36654;45.042;38.994;2023-02-28T09:16:09;101909.63;;;14.98;49.65
50684;BME280;36654;45.042;38.994;2023-02-28T09:18:36;101909.66;;;15.01;49.58
50684;BME280;36654;45.042;38.994;2023-02-28T09:21:11;101915.84;;;15.00;49.81
50684;BME280;36654;45.042;38.994;2023-02-28T09:23:40;101904.28;;;14.98;49.78
50684;BME280;36654;45.042;38.994;2023-02-28T09:26:06;101911.41;;;14.99;50.30
50684;BME280;36654;45.042;38.994;2023-02-28T09:28:32;101823.72;;;14.58;50.31
50684;BME280;36654;45.042;38.994;2023-02-28T09:30:58;101904.28;;;14.98;50.59
50684;BME280;36654;45.042;38.994;2023-02-28T09:33:25;101886.31;;;14.84;50.71
50684;BME280;36654;45.042;38.994;2023-02-28T09:35:57;101892.59;;;14.89;50.86
50684;BME280;36654;45.042;38.994;2023-02-28T09:38:23;101902.47;;;14.95;50.80
50684;BME280;36654;45.042;38.994;2023-02-28T09:40:54;101897.06;;;14.91;51.04
50684;BME280;36654;45.042;38.994;2023-02-28T09:43:23;101897.03;;;14.89;51.09
50684;BME280;36654;45.042;38.994;2023-02-28T09:46:05;101884.56;;;14.86;50.96
50684;BME280;36654;45.042;38.994;2023-02-28T09:48:39;101854.03;;;14.63;50.92
50684;BME280;36654;45.042;38.994;2023-02-28T09:54:14;101888.75;;;14.67;50.99
50684;BME280;36654;45.042;38.994;2023-02-28T09:56:47;101896.53;;;14.51;51.30
50684;BME280;36654;45.042;38.994;2023-02-28T09:59:40;101899.31;;;14.57;52.05
50684;BME280;36654;45.042;38.994;2023-02-28T10:05:01;101883.31;;;14.58;53.06
50684;BME280;36654;45.042;38.994;2023-02-28T10:10:33;101883.09;;;14.44;52.69
50684;BME280;36654;45.042;38.994;2023-02-28T10:13:12;101866.06;;;14.33;52.67
50684;BME280;36654;45.042;38.994;2023-02-28T10:15:40;101882.28;;;14.49;53.18
50684;BME280;36654;45.042;38.994;2023-02-28T10:18:15;101841.03;;;14.23;53.05
50684;BME280;36654;45.042;38.994;2023-02-28T10:20:42;101864.34;;;14.38;53.19
50684;BME280;36654;45.042;38.994;2023-02-28T10:23:25;101887.66;;;14.52;53.60
50684;BME280;36654;45.042;38.994;2023-02-28T10:26:18;101877.09;;;14.58;53.25
50684;BME280;36654;45.042;38.994;2023-02-28T10:28:44;101830.50;;;14.34;53.55
50684;BME280;36654;45.042;38.994;2023-02-28T10:31:15;101862.72;;;14.50;53.73
50684;BME280;36654;45.042;38.994;2023-02-28T10:33:43;101873.28;;;14.40;54.99
50684;BME280;36654;45.042;38.994;2023-02-28T10:36:17;101862.47;;;14.31;54.73
50684;BME280;36654;45.042;38.994;2023-02-28T10:38:45;101860.78;;;14.39;54.58
50684;BME280;36654;45.042;38.994;2023-02-28T10:41:36;101708.44;;;13.48;54.40
50684;BME280;36654;45.042;38.994;2023-02-28T10:44:20;101860.91;;;14.45;54.59
50684;BME280;36654;45.042;38.994;2023-02-28T10:46:46;101855.59;;;14.50;54.51
50684;BME280;36654;45.042;38.994;2023-02-28T10:49:23;101862.72;;;14.50;54.52
50684;BME280;36654;45.042;38.994;2023-02-28T10:51:52;101791.88;;;14.05;54.74
50684;BME280;36654;45.042;38.994;2023-02-28T10:54:23;101842.25;;;14.50;54.77
50684;BME280;36654;45.042;38.994;2023-02-28T10:57:20;101854.91;;;14.62;54.50
50684;BME280;36654;45.042;38.994;2023-02-28T10:59:51;101852.19;;;14.59;54.42
50684;BME280;36654;45.042;38.994;2023-02-28T11:02:37;101780.47;;;14.13;54.45
50684;BME280;36654;45.042;38.994;2023-02-28T11:08:14;101824.16;;;14.23;54.98
50684;BME280;36654;45.042;38.994;2023-02-28T11:10:54;101834.97;;;14.35;55.41
50684;BME280;36654;45.042;38.994;2023-02-28T11:13:25;101827.84;;;14.33;55.44
50684;BME280;36654;45.042;38.994;2023-02-28T11:15:59;101850.97;;;14.35;55.71
50684;BME280;36654;45.042;38.994;2023-02-28T11:18:29;101847.34;;;14.32;55.78
50684;BME280;36654;45.042;38.994;2023-02-28T11:21:00;101850.00;;;14.29;55.99
50684;BME280;36654;45.042;38.994;2023-02-28T11:23:32;101831.19;;;14.18;56.05
50684;BME280;36654;45.042;38.994;2023-02-28T11:26:02;101831.13;;;14.13;56.28
50684;BME280;36654;45.042;38.994;2023-02-28T11:28:31;101820.50;;;14.16;56.36
50684;BME280;36654;45.042;38.994;2023-02-28T11:31:16;101857.84;;;14.18;56.32
50684;BME280;36654;45.042;38.994;2023-02-28T11:33:54;101839.28;;;14.27;56.28
50684;BME280;36654;45.042;38.994;2023-02-28T11:36:24;101773.91;;;13.90;56.17
50684;BME280;36654;45.042;38.994;2023-02-28T11:39:01;101818.69;;;14.14;56.09
50684;BME280;36654;45.042;38.994;2023-02-28T11:46:59;101813.56;;;14.31;55.68
50684;BME280;36654;45.042;38.994;2023-02-28T11:50:34;101848.56;;;14.54;55.29
50684;BME280;36654;45.042;38.994;2023-02-28T11:52:59;101851.16;;;14.49;55.44
50684;BME280;36654;45.042;38.994;2023-02-28T12:03:23;101749.94;;;13.91;55.94
50684;BME280;36654;45.042;38.994;2023-02-28T12:06:27;101841.00;;;14.22;56.61
50684;BME280;36654;45.042;38.994;2023-02-28T12:11:56;101792.34;;;13.73;57.49
50684;BME280;36654;45.042;38.994;2023-02-28T12:17:31;101844.09;;;13.90;58.05
50684;BME280;36654;45.042;38.994;2023-02-28T12:26:44;101846.53;;;13.75;58.86
50684;BME280;36654;45.042;38.994;2023-02-28T12:29:22;101849.25;;;13.78;58.92
50684;BME280;36654;45.042;38.994;2023-02-28T12:31:53;101858.13;;;13.77;59.34
50684;BME280;36654;45.042;38.994;2023-02-28T12:34:46;101866.31;;;13.89;59.74
50684;BME280;36654;45.042;38.994;2023-02-28T12:40:28;101858.34;;;13.92;59.37
50684;BME280;36654;45.042;38.994;2023-02-28T12:43:02;101853.94;;;13.93;59.35
50684;BME280;36654;45.042;38.994;2023-02-28T12:45:53;101853.00;;;13.92;59.73
50684;BME280;36654;45.042;38.994;2023-02-28T12:48:31;101771.41;;;13.41;59.62
50684;BME280;36654;45.042;38.994;2023-02-28T12:50:58;101828.72;;;13.72;59.63
50684;BME280;36654;45.042;38.994;2023-02-28T12:56:09;101865.41;;;13.90;59.85
50684;BME280;36654;45.042;38.994;2023-02-28T12:59:30;101872.44;;;13.85;59.70
50684;BME280;36654;45.042;38.994;2023-02-28T13:04:42;101861.50;;;13.67;59.32
50684;BME280;36654;45.042;38.994;2023-02-28T13:10:04;101861.22;;;13.48;59.55
50684;BME280;36654;45.042;38.994;2023-02-28T13:12:32;101838.72;;;13.32;59.57
50684;BME280;36654;45.042;38.994;2023-02-28T13:15:17;101861.94;;;13.38;59.24
50684;BME280;36654;45.042;38.994;2023-02-28T13:17:52;101864.41;;;13.30;59.35
50684;BME280;36654;45.042;38.994;2023-02-28T13:20:19;101879.47;;;13.27;59.06
50684;BME280;36654;45.042;38.994;2023-02-28T13:22:48;101897.97;;;13.21;59.18
50684;BME280;36654;45.042;38.994;2023-02-28T13:28:00;101874.63;;;13.07;59.30
50684;BME280;36654;45.042;38.994;2023-02-28T13:33:32;101865.41;;;12.88;59.75
50684;BME280;36654;45.042;38.994;2023-02-28T13:36:10;101854.66;;;12.84;60.11
50684;BME280;36654;45.042;38.994;2023-02-28T13:38:41;101783.66;;;12.37;60.50
50684;BME280;36654;45.042;38.994;2023-02-28T13:49:26;101848.38;;;12.38;62.38
50684;BME280;36654;45.042;38.994;2023-02-28T13:58:20;101845.38;;;12.21;62.93
50684;BME280;36654;45.042;38.994;2023-02-28T14:08:34;101865.25;;;11.99;64.13
50684;BME280;36654;45.042;38.994;2023-02-28T14:11:06;101877.38;;;11.87;63.71
50684;BME280;36654;45.042;38.994;2023-02-28T14:13:43;101780.31;;;11.29;63.69
50684;BME280;36654;45.042;38.994;2023-02-28T14:16:11;101855.59;;;11.66;63.72
50684;BME280;36654;45.042;38.994;2023-02-28T14:18:42;101881.31;;;11.69;63.75
50684;BME280;36654;45.042;38.994;2023-02-28T14:21:21;101802.88;;;11.12;63.91
50684;BME280;36654;45.042;38.994;2023-02-28T14:27:08;101894.34;;;11.25;64.46
50684;BME280;36654;45.042;38.994;2023-02-28T14:30:02;101893.03;;;11.09;65.04
50684;BME280;36654;45.042;38.994;2023-02-28T14:37:43;101874.00;;;10.62;65.70
50684;BME280;36654;45.042;38.994;2023-02-28T14:40:20;101888.22;;;10.64;65.93
50684;BME280;36654;45.042;38.994;2023-02-28T14:43:01;101896.22;;;10.65;65.75
50684;BME280;36654;45.042;38.994;2023-02-28T14:45:31;101896.78;;;10.55;65.69
50684;BME280;36654;45.042;38.994;2023-02-28T14:47:58;101876.00;;;10.39;66.15
50684;BME280;36654;45.042;38.994;2023-02-28T14:50:30;101905.03;;;10.35;66.75
50684;BME280;36654;45.042;38.994;2023-02-28T14:52:57;101913.72;;;10.30;66.65
50684;BME280;36654;45.042;38.994;2023-02-28T14:55:27;101872.09;;;10.00;66.90
50684;BME280;36654;45.042;38.994;2023-02-28T14:57:56;101910.53;;;10.14;67.20